sensor_id;sensor_type;location;lat;lon;timestamp;P1;durP1;ratioP1;P2;durP2;ratioP2
58472;SDS011;44775;51.564;5.460;2022-12-10T00:01:58;89.05;;;32.13;;
58472;SDS011;44775;51.564;5.460;2022-12-10T00:04:23;88.20;;;34.25;;
58472;SDS011;44775;51.564;5.460;2022-12-10T00:06:48;94.88;;;34.65;;
58472;SDS011;44775;51.564;5.460;2022-12-10T00:09:15;92.18;;;32.72;;
58472;SDS011;44775;51.564;5.460;2022-12-10T00:11:42;90.72;;;33.35;;
58472;SDS011;44775;51.564;5.460;2022-12-10T00:14:08;88.88;;;32.00;;
58472;SDS011;44775;51.564;5.460;2022-12-10T00:16:34;85.18;;;31.85;;
58472;SDS011;44775;51.564;5.460;2022-12-10T00:19:00;83.35;;;32.50;;
58472;SDS011;44775;51.564;5.460;2022-12-10T00:21:27;90.38;;;31.55;;
58472;SDS011;44775;51.564;5.460;2022-12-10T00:23:54;88.20;;;31.98;;
58472;SDS011;44775;51.564;5.460;2022-12-10T00:26:24;98.20;;;33.40;;
58472;SDS011;44775;51.564;5.460;2022-12-10T00:28:51;95.40;;;34.08;;
58472;SDS011;44775;51.564;5.460;2022-12-10T00:31:19;100.75;;;36.55;;
58472;SDS011;44775;51.564;5.460;2022-12-10T00:33:47;98.82;;;35.65;;
58472;SDS011;44775;51.564;5.460;2022-12-10T00:36:17;101.88;;;36.40;;
58472;SDS011;44775;51.564;5.460;2022-12-10T00:38:48;98.65;;;34.20;;
58472;SDS011;44775;51.564;5.460;2022-12-10T00:41:14;204.10;;;40.72;;
58472;SDS011;44775;51.564;5.460;2022-12-10T00:43:41;88.53;;;32.50;;
58472;SDS011;44775;51.564;5.460;2022-12-10T00:46:07;99.03;;;35.75;;
58472;SDS011;44775;51.564;5.460;2022-12-10T00:48:33;103.75;;;35.90;;
58472;SDS011;44775;51.564;5.460;2022-12-10T00:51:01;103.88;;;35.97;;
58472;SDS011;44775;51.564;5.460;2022-12-10T00:53:32;90.60;;;34.45;;
58472;SDS011;44775;51.564;5.460;2022-12-10T00:55:58;98.22;;;36.00;;
58472;SDS011;44775;51.564;5.460;2022-12-10T00:58:26;87.47;;;32.15;;
58472;SDS011;44775;51.564;5.460;2022-12-10T01:00:53;100.65;;;35.60;;
58472;SDS011;44775;51.564;5.460;2022-12-10T01:03:19;92.65;;;34.05;;
58472;SDS011;44775;51.564;5.460;2022-12-10T01:05:45;94.88;;;35.70;;
58472;SDS011;44775;51.564;5.460;2022-12-10T01:08:11;101.47;;;35.58;;
58472;SDS011;44775;51.564;5.460;2022-12-10T01:10:36;114.75;;;38.00;;
58472;SDS011;44775;51.564;5.460;2022-12-10T01:13:02;99.03;;;38.10;;
58472;SDS011;44775;51.564;5.460;2022-12-10T01:15:29;94.18;;;33.88;;
58472;SDS011;44775;51.564;5.460;2022-12-10T01:17:54;89.07;;;35.25;;
58472;SDS011;44775;51.564;5.460;2022-12-10T01:20:20;102.47;;;35.08;;
58472;SDS011;44775;51.564;5.460;2022-12-10T01:22:45;101.60;;;36.17;;
58472;SDS011;44775;51.564;5.460;2022-12-10T01:25:11;109.30;;;38.47;;
58472;SDS011;44775;51.564;5.460;2022-12-10T01:27:37;104.07;;;35.53;;
58472;SDS011;44775;51.564;5.460;2022-12-10T01:30:02;105.40;;;36.53;;
58472;SDS011;44775;51.564;5.460;2022-12-10T01:32:28;159.57;;;38.45;;
58472;SDS011;44775;51.564;5.460;2022-12-10T01:34:54;96.63;;;36.15;;
58472;SDS011;44775;51.564;5.460;2022-12-10T01:37:19;103.30;;;36.08;;
58472;SDS011;44775;51.564;5.460;2022-12-10T01:39:44;99.45;;;36.28;;
58472;SDS011;44775;51.564;5.460;2022-12-10T01:42:11;106.55;;;37.70;;
58472;SDS011;44775;51.564;5.460;2022-12-10T01:47:06;111.07;;;36.67;;
58472;SDS011;44775;51.564;5.460;2022-12-10T01:49:34;106.65;;;36.63;;
58472;SDS011;44775;51.564;5.460;2022-12-10T01:52:02;96.82;;;34.97;;
58472;SDS011;44775;51.564;5.460;2022-12-10T01:54:30;111.95;;;39.08;;
58472;SDS011;44775;51.564;5.460;2022-12-10T01:57:04;110.70;;;37.35;;
58472;SDS011;44775;51.564;5.460;2022-12-10T01:59:33;105.85;;;36.35;;
58472;SDS011;44775;51.564;5.460;2022-12-10T02:04:37;115.65;;;38.05;;
58472;SDS011;44775;51.564;5.460;2022-12-10T02:07:09;124.20;;;44.15;;
58472;SDS011;44775;51.564;5.460;2022-12-10T02:15:10;110.67;;;39.40;;
58472;SDS011;44775;51.564;5.460;2022-12-10T02:17:45;146.13;;;40.15;;
58472;SDS011;44775;51.564;5.460;2022-12-10T02:20:17;114.88;;;37.85;;
58472;SDS011;44775;51.564;5.460;2022-12-10T02:22:51;113.47;;;35.58;;
58472;SDS011;44775;51.564;5.460;2022-12-10T02:25:23;111.82;;;38.72;;
58472;SDS011;44775;51.564;5.460;2022-12-10T02:30:38;105.40;;;36.45;;
58472;SDS011;44775;51.564;5.460;2022-12-10T02:33:05;114.93;;;38.00;;
58472;SDS011;44775;51.564;5.460;2022-12-10T02:35:33;109.70;;;35.67;;
58472;SDS011;44775;51.564;5.460;2022-12-10T02:38:08;104.38;;;35.30;;
58472;SDS011;44775;51.564;5.460;2022-12-10T02:40:42;124.72;;;36.50;;
58472;SDS011;44775;51.564;5.460;2022-12-10T02:43:12;150.43;;;39.13;;
58472;SDS011;44775;51.564;5.460;2022-12-10T02:45:39;112.47;;;34.08;;
58472;SDS011;44775;51.564;5.460;2022-12-10T02:48:07;178.93;;;40.50;;
58472;SDS011;44775;51.564;5.460;2022-12-10T02:50:34;134.65;;;38.63;;
58472;SDS011;44775;51.564;5.460;2022-12-10T02:53:00;128.27;;;41.55;;
58472;SDS011;44775;51.564;5.460;2022-12-10T02:55:25;149.55;;;39.67;;
58472;SDS011;44775;51.564;5.460;2022-12-10T03:00:23;150.25;;;36.45;;
58472;SDS011;44775;51.564;5.460;2022-12-10T03:08:27;131.18;;;36.55;;
58472;SDS011;44775;51.564;5.460;2022-12-10T03:11:12;123.35;;;37.97;;
58472;SDS011;44775;51.564;5.460;2022-12-10T03:13:43;140.80;;;37.63;;
58472;SDS011;44775;51.564;5.460;2022-12-10T03:16:18;143.95;;;37.92;;
58472;SDS011;44775;51.564;5.460;2022-12-10T03:18:46;134.30;;;36.75;;
58472;SDS011;44775;51.564;5.460;2022-12-10T03:21:14;133.68;;;36.47;;
58472;SDS011;44775;51.564;5.460;2022-12-10T03:23:42;132.32;;;36.65;;
58472;SDS011;44775;51.564;5.460;2022-12-10T03:26:10;126.75;;;37.33;;
58472;SDS011;44775;51.564;5.460;2022-12-10T03:28:45;117.00;;;35.47;;
58472;SDS011;44775;51.564;5.460;2022-12-10T03:31:15;127.57;;;38.15;;
58472;SDS011;44775;51.564;5.460;2022-12-10T03:33:42;129.20;;;37.70;;
58472;SDS011;44775;51.564;5.460;2022-12-10T03:36:08;121.00;;;36.03;;
58472;SDS011;44775;51.564;5.460;2022-12-10T03:38:34;131.32;;;36.15;;
58472;SDS011;44775;51.564;5.460;2022-12-10T03:41:01;129.38;;;37.20;;
58472;SDS011;44775;51.564;5.460;2022-12-10T03:43:28;120.78;;;37.03;;
58472;SDS011;44775;51.564;5.460;2022-12-10T03:45:53;128.57;;;38.55;;
58472;SDS011;44775;51.564;5.460;2022-12-10T03:48:19;112.93;;;30.88;;
58472;SDS011;44775;51.564;5.460;2022-12-10T03:50:44;183.82;;;38.58;;
58472;SDS011;44775;51.564;5.460;2022-12-10T03:53:09;313.23;;;41.08;;
58472;SDS011;44775;51.564;5.460;2022-12-10T03:55:35;138.07;;;38.42;;
58472;SDS011;44775;51.564;5.460;2022-12-10T03:58:01;137.05;;;40.10;;
58472;SDS011;44775;51.564;5.460;2022-12-10T04:00:26;118.45;;;36.13;;
58472;SDS011;44775;51.564;5.460;2022-12-10T04:02:52;121.35;;;34.40;;
58472;SDS011;44775;51.564;5.460;2022-12-10T04:05:17;144.40;;;37.92;;
58472;SDS011;44775;51.564;5.460;2022-12-10T04:07:42;162.98;;;37.72;;
58472;SDS011;44775;51.564;5.460;2022-12-10T04:10:08;128.80;;;34.63;;
58472;SDS011;44775;51.564;5.460;2022-12-10T04:12:33;137.90;;;35.78;;
58472;SDS011;44775;51.564;5.460;2022-12-10T04:14:59;184.68;;;36.95;;
58472;SDS011;44775;51.564;5.460;2022-12-10T04:17:43;123.10;;;34.67;;
58472;SDS011;44775;51.564;5.460;2022-12-10T04:20:09;148.05;;;37.72;;
58472;SDS011;44775;51.564;5.460;2022-12-10T04:22:55;118.22;;;34.67;;
58472;SDS011;44775;51.564;5.460;2022-12-10T04:25:39;135.90;;;36.63;;
58472;SDS011;44775;51.564;5.460;2022-12-10T04:28:23;146.18;;;39.08;;
58472;SDS011;44775;51.564;5.460;2022-12-10T04:30:48;135.85;;;37.15;;
58472;SDS011;44775;51.564;5.460;2022-12-10T04:33:14;205.25;;;37.63;;
58472;SDS011;44775;51.564;5.460;2022-12-10T04:35:39;213.52;;;36.67;;
58472;SDS011;44775;51.564;5.460;2022-12-10T04:38:04;168.93;;;39.53;;
58472;SDS011;44775;51.564;5.460;2022-12-10T04:40:30;194.23;;;39.20;;
58472;SDS011;44775;51.564;5.460;2022-12-10T04:42:55;195.48;;;35.92;;
58472;SDS011;44775;51.564;5.460;2022-12-10T04:45:21;152.65;;;36.95;;
58472;SDS011;44775;51.564;5.460;2022-12-10T04:47:46;155.00;;;35.65;;
58472;SDS011;44775;51.564;5.460;2022-12-10T04:50:11;190.27;;;38.58;;
58472;SDS011;44775;51.564;5.460;2022-12-10T04:52:37;162.32;;;35.08;;
58472;SDS011;44775;51.564;5.460;2022-12-10T04:55:02;220.63;;;36.90;;
58472;SDS011;44775;51.564;5.460;2022-12-10T04:57:28;181.88;;;38.03;;
58472;SDS011;44775;51.564;5.460;2022-12-10T04:59:54;203.48;;;40.97;;
58472;SDS011;44775;51.564;5.460;2022-12-10T05:02:19;337.77;;;41.58;;
58472;SDS011;44775;51.564;5.460;2022-12-10T05:04:44;253.13;;;39.00;;
58472;SDS011;44775;51.564;5.460;2022-12-10T05:07:10;217.18;;;38.97;;
58472;SDS011;44775;51.564;5.460;2022-12-10T05:09:35;281.38;;;39.33;;
58472;SDS011;44775;51.564;5.460;2022-12-10T05:12:02;231.80;;;38.75;;
58472;SDS011;44775;51.564;5.460;2022-12-10T05:14:28;166.88;;;36.67;;
58472;SDS011;44775;51.564;5.460;2022-12-10T05:16:54;279.77;;;41.08;;
58472;SDS011;44775;51.564;5.460;2022-12-10T05:19:19;164.82;;;37.72;;
58472;SDS011;44775;51.564;5.460;2022-12-10T05:21:46;243.52;;;40.55;;
58472;SDS011;44775;51.564;5.460;2022-12-10T05:24:30;235.95;;;39.47;;
58472;SDS011;44775;51.564;5.460;2022-12-10T05:26:56;297.83;;;41.88;;
58472;SDS011;44775;51.564;5.460;2022-12-10T05:29:22;178.75;;;39.20;;
58472;SDS011;44775;51.564;5.460;2022-12-10T05:31:48;142.35;;;32.80;;
58472;SDS011;44775;51.564;5.460;2022-12-10T05:34:13;233.80;;;40.15;;
58472;SDS011;44775;51.564;5.460;2022-12-10T05:36:39;236.23;;;38.90;;
58472;SDS011;44775;51.564;5.460;2022-12-10T05:39:05;153.23;;;37.75;;
58472;SDS011;44775;51.564;5.460;2022-12-10T05:41:34;181.25;;;39.80;;
58472;SDS011;44775;51.564;5.460;2022-12-10T05:44:01;189.52;;;39.30;;
58472;SDS011;44775;51.564;5.460;2022-12-10T05:46:29;179.98;;;37.50;;
58472;SDS011;44775;51.564;5.460;2022-12-10T05:48:55;163.13;;;34.92;;
58472;SDS011;44775;51.564;5.460;2022-12-10T05:51:22;164.95;;;36.03;;
58472;SDS011;44775;51.564;5.460;2022-12-10T05:53:50;203.07;;;36.40;;
58472;SDS011;44775;51.564;5.460;2022-12-10T05:56:17;254.05;;;37.00;;
58472;SDS011;44775;51.564;5.460;2022-12-10T05:58:45;183.45;;;37.47;;
58472;SDS011;44775;51.564;5.460;2022-12-10T06:01:13;196.73;;;37.90;;
58472;SDS011;44775;51.564;5.460;2022-12-10T06:03:43;175.52;;;34.75;;
58472;SDS011;44775;51.564;5.460;2022-12-10T06:06:09;177.93;;;34.83;;
58472;SDS011;44775;51.564;5.460;2022-12-10T06:08:35;145.13;;;35.45;;
58472;SDS011;44775;51.564;5.460;2022-12-10T06:11:01;250.32;;;38.25;;
58472;SDS011;44775;51.564;5.460;2022-12-10T06:13:31;149.88;;;36.15;;
58472;SDS011;44775;51.564;5.460;2022-12-10T06:15:57;153.23;;;37.40;;
58472;SDS011;44775;51.564;5.460;2022-12-10T06:18:23;179.60;;;39.83;;
58472;SDS011;44775;51.564;5.460;2022-12-10T06:20:49;159.52;;;36.03;;
58472;SDS011;44775;51.564;5.460;2022-12-10T06:23:14;167.90;;;38.00;;
58472;SDS011;44775;51.564;5.460;2022-12-10T06:25:40;183.75;;;36.03;;
58472;SDS011;44775;51.564;5.460;2022-12-10T06:28:06;354.67;;;38.42;;
58472;SDS011;44775;51.564;5.460;2022-12-10T06:30:33;161.20;;;32.40;;
58472;SDS011;44775;51.564;5.460;2022-12-10T06:32:59;213.75;;;34.05;;
58472;SDS011;44775;51.564;5.460;2022-12-10T06:35:24;271.45;;;36.42;;
58472;SDS011;44775;51.564;5.460;2022-12-10T06:37:50;261.00;;;37.22;;
58472;SDS011;44775;51.564;5.460;2022-12-10T06:40:16;202.05;;;34.22;;
58472;SDS011;44775;51.564;5.460;2022-12-10T06:42:42;122.40;;;33.30;;
58472;SDS011;44775;51.564;5.460;2022-12-10T06:45:08;173.32;;;34.10;;
58472;SDS011;44775;51.564;5.460;2022-12-10T06:47:34;128.93;;;32.67;;
58472;SDS011;44775;51.564;5.460;2022-12-10T06:49:59;180.10;;;35.63;;
58472;SDS011;44775;51.564;5.460;2022-12-10T06:52:25;158.30;;;34.50;;
58472;SDS011;44775;51.564;5.460;2022-12-10T06:54:50;135.93;;;34.08;;
58472;SDS011;44775;51.564;5.460;2022-12-10T06:57:16;124.13;;;32.65;;
58472;SDS011;44775;51.564;5.460;2022-12-10T06:59:42;110.65;;;29.33;;
58472;SDS011;44775;51.564;5.460;2022-12-10T07:02:08;116.88;;;30.58;;
58472;SDS011;44775;51.564;5.460;2022-12-10T07:04:34;143.27;;;33.38;;
58472;SDS011;44775;51.564;5.460;2022-12-10T07:07:01;182.85;;;33.47;;
58472;SDS011;44775;51.564;5.460;2022-12-10T07:09:26;138.88;;;31.40;;
58472;SDS011;44775;51.564;5.460;2022-12-10T07:11:52;122.93;;;30.60;;
58472;SDS011;44775;51.564;5.460;2022-12-10T07:14:18;122.38;;;30.25;;
58472;SDS011;44775;51.564;5.460;2022-12-10T07:16:44;149.23;;;32.30;;
58472;SDS011;44775;51.564;5.460;2022-12-10T07:19:10;129.15;;;31.48;;
58472;SDS011;44775;51.564;5.460;2022-12-10T07:21:38;118.47;;;26.13;;
58472;SDS011;44775;51.564;5.460;2022-12-10T07:24:06;128.07;;;32.72;;
58472;SDS011;44775;51.564;5.460;2022-12-10T07:26:36;233.82;;;35.05;;
58472;SDS011;44775;51.564;5.460;2022-12-10T07:29:04;152.65;;;37.28;;
58472;SDS011;44775;51.564;5.460;2022-12-10T07:31:30;131.10;;;30.90;;
58472;SDS011;44775;51.564;5.460;2022-12-10T07:33:57;82.75;;;23.00;;
58472;SDS011;44775;51.564;5.460;2022-12-10T07:36:23;112.63;;;28.67;;
58472;SDS011;44775;51.564;5.460;2022-12-10T07:38:52;135.35;;;31.13;;
58472;SDS011;44775;51.564;5.460;2022-12-10T07:41:19;146.15;;;37.13;;
58472;SDS011;44775;51.564;5.460;2022-12-10T07:43:46;145.23;;;35.70;;
58472;SDS011;44775;51.564;5.460;2022-12-10T07:46:15;132.98;;;31.25;;
58472;SDS011;44775;51.564;5.460;2022-12-10T07:48:43;157.18;;;39.67;;
58472;SDS011;44775;51.564;5.460;2022-12-10T07:51:10;159.85;;;39.85;;
58472;SDS011;44775;51.564;5.460;2022-12-10T07:53:36;154.27;;;37.13;;
58472;SDS011;44775;51.564;5.460;2022-12-10T07:56:02;208.48;;;41.33;;
58472;SDS011;44775;51.564;5.460;2022-12-10T07:58:28;147.23;;;37.58;;
58472;SDS011;44775;51.564;5.460;2022-12-10T08:00:54;163.55;;;40.08;;
58472;SDS011;44775;51.564;5.460;2022-12-10T08:03:20;164.15;;;37.20;;
58472;SDS011;44775;51.564;5.460;2022-12-10T08:05:45;153.05;;;34.10;;
58472;SDS011;44775;51.564;5.460;2022-12-10T08:08:11;162.07;;;43.92;;
58472;SDS011;44775;51.564;5.460;2022-12-10T08:10:37;215.02;;;41.78;;
58472;SDS011;44775;51.564;5.460;2022-12-10T08:13:03;215.18;;;43.17;;
58472;SDS011;44775;51.564;5.460;2022-12-10T08:15:30;159.77;;;39.92;;
58472;SDS011;44775;51.564;5.460;2022-12-10T08:17:55;192.02;;;38.45;;
58472;SDS011;44775;51.564;5.460;2022-12-10T08:20:22;158.20;;;36.63;;
58472;SDS011;44775;51.564;5.460;2022-12-10T08:22:48;125.80;;;30.27;;
58472;SDS011;44775;51.564;5.460;2022-12-10T08:25:14;143.10;;;33.17;;
58472;SDS011;44775;51.564;5.460;2022-12-10T08:27:39;154.20;;;35.72;;
58472;SDS011;44775;51.564;5.460;2022-12-10T08:30:05;150.50;;;36.53;;
58472;SDS011;44775;51.564;5.460;2022-12-10T08:32:31;131.30;;;32.45;;
58472;SDS011;44775;51.564;5.460;2022-12-10T08:34:56;145.70;;;34.47;;
58472;SDS011;44775;51.564;5.460;2022-12-10T08:37:22;138.60;;;35.55;;
58472;SDS011;44775;51.564;5.460;2022-12-10T08:39:47;183.23;;;35.85;;
58472;SDS011;44775;51.564;5.460;2022-12-10T08:42:13;168.10;;;35.05;;
58472;SDS011;44775;51.564;5.460;2022-12-10T08:44:38;270.45;;;35.75;;
58472;SDS011;44775;51.564;5.460;2022-12-10T08:47:04;161.02;;;37.00;;
58472;SDS011;44775;51.564;5.460;2022-12-10T08:49:29;156.18;;;37.20;;
58472;SDS011;44775;51.564;5.460;2022-12-10T08:51:55;243.80;;;35.85;;
58472;SDS011;44775;51.564;5.460;2022-12-10T08:54:20;203.65;;;34.58;;
58472;SDS011;44775;51.564;5.460;2022-12-10T08:56:46;150.35;;;33.00;;
58472;SDS011;44775;51.564;5.460;2022-12-10T08:59:11;150.00;;;31.75;;
58472;SDS011;44775;51.564;5.460;2022-12-10T09:01:37;159.13;;;34.05;;
58472;SDS011;44775;51.564;5.460;2022-12-10T09:04:04;144.63;;;34.90;;
58472;SDS011;44775;51.564;5.460;2022-12-10T09:06:29;137.88;;;31.60;;
58472;SDS011;44775;51.564;5.460;2022-12-10T09:08:55;130.60;;;32.15;;
58472;SDS011;44775;51.564;5.460;2022-12-10T09:11:23;132.90;;;30.30;;
58472;SDS011;44775;51.564;5.460;2022-12-10T09:13:53;208.18;;;34.92;;
58472;SDS011;44775;51.564;5.460;2022-12-10T09:16:19;156.85;;;29.25;;
58472;SDS011;44775;51.564;5.460;2022-12-10T09:18:45;180.18;;;33.17;;
58472;SDS011;44775;51.564;5.460;2022-12-10T09:21:12;126.07;;;29.00;;
58472;SDS011;44775;51.564;5.460;2022-12-10T09:26:06;122.03;;;30.58;;
58472;SDS011;44775;51.564;5.460;2022-12-10T09:28:34;113.00;;;26.65;;
58472;SDS011;44775;51.564;5.460;2022-12-10T09:31:00;139.05;;;32.05;;
58472;SDS011;44775;51.564;5.460;2022-12-10T09:33:29;164.55;;;34.95;;
58472;SDS011;44775;51.564;5.460;2022-12-10T09:35:55;138.57;;;30.65;;
58472;SDS011;44775;51.564;5.460;2022-12-10T09:38:21;154.32;;;33.15;;
58472;SDS011;44775;51.564;5.460;2022-12-10T09:40:49;122.90;;;30.75;;
58472;SDS011;44775;51.564;5.460;2022-12-10T09:43:28;117.32;;;29.10;;
58472;SDS011;44775;51.564;5.460;2022-12-10T09:51:45;154.70;;;30.20;;
58472;SDS011;44775;51.564;5.460;2022-12-10T09:54:18;134.63;;;31.27;;
58472;SDS011;44775;51.564;5.460;2022-12-10T09:56:48;116.88;;;28.98;;
58472;SDS011;44775;51.564;5.460;2022-12-10T09:59:34;114.18;;;28.23;;
58472;SDS011;44775;51.564;5.460;2022-12-10T10:04:45;99.35;;;28.42;;
58472;SDS011;44775;51.564;5.460;2022-12-10T10:07:17;97.38;;;28.15;;
58472;SDS011;44775;51.564;5.460;2022-12-10T10:09:46;103.45;;;29.30;;
58472;SDS011;44775;51.564;5.460;2022-12-10T10:12:13;103.32;;;27.60;;
58472;SDS011;44775;51.564;5.460;2022-12-10T10:14:40;97.80;;;25.90;;
58472;SDS011;44775;51.564;5.460;2022-12-10T10:17:09;109.20;;;27.73;;
58472;SDS011;44775;51.564;5.460;2022-12-10T10:19:41;113.78;;;29.83;;
58472;SDS011;44775;51.564;5.460;2022-12-10T10:22:09;114.75;;;30.92;;
58472;SDS011;44775;51.564;5.460;2022-12-10T10:24:37;118.78;;;30.52;;
58472;SDS011;44775;51.564;5.460;2022-12-10T10:27:17;115.05;;;29.75;;
58472;SDS011;44775;51.564;5.460;2022-12-10T10:29:46;123.10;;;31.83;;
58472;SDS011;44775;51.564;5.460;2022-12-10T10:32:16;104.03;;;28.40;;
58472;SDS011;44775;51.564;5.460;2022-12-10T10:34:45;109.20;;;29.00;;
58472;SDS011;44775;51.564;5.460;2022-12-10T10:37:18;106.40;;;28.85;;
58472;SDS011;44775;51.564;5.460;2022-12-10T10:39:50;100.65;;;29.90;;
58472;SDS011;44775;51.564;5.460;2022-12-10T10:42:25;103.55;;;28.48;;
58472;SDS011;44775;51.564;5.460;2022-12-10T10:44:52;94.65;;;27.13;;
58472;SDS011;44775;51.564;5.460;2022-12-10T10:47:51;95.25;;;28.58;;
58472;SDS011;44775;51.564;5.460;2022-12-10T10:50:12;91.05;;;26.92;;
58472;SDS011;44775;51.564;5.460;2022-12-10T10:52:50;89.10;;;27.00;;
58472;SDS011;44775;51.564;5.460;2022-12-10T10:55:31;91.30;;;25.58;;
58472;SDS011;44775;51.564;5.460;2022-12-10T10:58:00;85.75;;;23.85;;
58472;SDS011;44775;51.564;5.460;2022-12-10T11:00:26;100.35;;;25.73;;
58472;SDS011;44775;51.564;5.460;2022-12-10T11:02:52;82.20;;;26.50;;
58472;SDS011;44775;51.564;5.460;2022-12-10T11:05:22;92.82;;;32.05;;
58472;SDS011;44775;51.564;5.460;2022-12-10T11:08:02;88.50;;;24.17;;
58472;SDS011;44775;51.564;5.460;2022-12-10T11:10:29;96.78;;;28.70;;
58472;SDS011;44775;51.564;5.460;2022-12-10T11:13:06;92.72;;;25.55;;
58472;SDS011;44775;51.564;5.460;2022-12-10T11:16:25;93.90;;;25.42;;
58472;SDS011;44775;51.564;5.460;2022-12-10T11:18:55;114.20;;;30.40;;
58472;SDS011;44775;51.564;5.460;2022-12-10T11:21:30;92.43;;;24.58;;
58472;SDS011;44775;51.564;5.460;2022-12-10T11:23:56;95.68;;;26.63;;
58472;SDS011;44775;51.564;5.460;2022-12-10T11:45:31;88.78;;;23.83;;
58472;SDS011;44775;51.564;5.460;2022-12-10T11:48:13;93.43;;;28.08;;
58472;SDS011;44775;51.564;5.460;2022-12-10T11:51:00;89.75;;;26.98;;
58472;SDS011;44775;51.564;5.460;2022-12-10T11:58:39;86.97;;;26.42;;
58472;SDS011;44775;51.564;5.460;2022-12-10T12:01:37;97.22;;;27.17;;
58472;SDS011;44775;51.564;5.460;2022-12-10T12:20:39;78.43;;;25.77;;
58472;SDS011;44775;51.564;5.460;2022-12-10T12:26:06;92.57;;;27.77;;
58472;SDS011;44775;51.564;5.460;2022-12-10T12:28:41;95.60;;;28.45;;
58472;SDS011;44775;51.564;5.460;2022-12-10T12:31:18;94.20;;;28.15;;
58472;SDS011;44775;51.564;5.460;2022-12-10T12:33:59;84.97;;;28.23;;
58472;SDS011;44775;51.564;5.460;2022-12-10T12:36:30;67.95;;;22.13;;
58472;SDS011;44775;51.564;5.460;2022-12-10T12:46:58;74.75;;;24.45;;
58472;SDS011;44775;51.564;5.460;2022-12-10T12:49:45;72.43;;;23.77;;
58472;SDS011;44775;51.564;5.460;2022-12-10T12:55:12;78.50;;;25.92;;
58472;SDS011;44775;51.564;5.460;2022-12-10T12:57:46;69.95;;;23.05;;
58472;SDS011;44775;51.564;5.460;2022-12-10T13:00:18;74.95;;;25.05;;
58472;SDS011;44775;51.564;5.460;2022-12-10T13:05:38;74.30;;;23.60;;
58472;SDS011;44775;51.564;5.460;2022-12-10T13:10:48;72.00;;;24.75;;
58472;SDS011;44775;51.564;5.460;2022-12-10T13:15:52;67.63;;;24.27;;
58472;SDS011;44775;51.564;5.460;2022-12-10T13:18:22;72.82;;;25.40;;
58472;SDS011;44775;51.564;5.460;2022-12-10T13:21:25;75.07;;;25.70;;
58472;SDS011;44775;51.564;5.460;2022-12-10T13:23:53;80.45;;;27.27;;
58472;SDS011;44775;51.564;5.460;2022-12-10T13:26:30;83.53;;;27.48;;
58472;SDS011;44775;51.564;5.460;2022-12-10T13:29:10;82.05;;;26.88;;
58472;SDS011;44775;51.564;5.460;2022-12-10T13:32:03;84.75;;;28.52;;
58472;SDS011;44775;51.564;5.460;2022-12-10T13:34:35;67.72;;;24.85;;
58472;SDS011;44775;51.564;5.460;2022-12-10T13:37:04;71.20;;;24.65;;
58472;SDS011;44775;51.564;5.460;2022-12-10T13:39:52;76.93;;;27.05;;
58472;SDS011;44775;51.564;5.460;2022-12-10T13:50:03;68.32;;;24.70;;
58472;SDS011;44775;51.564;5.460;2022-12-10T13:52:57;72.82;;;23.17;;
58472;SDS011;44775;51.564;5.460;2022-12-10T13:55:39;74.65;;;23.13;;
58472;SDS011;44775;51.564;5.460;2022-12-10T14:01:33;76.97;;;24.70;;
58472;SDS011;44775;51.564;5.460;2022-12-10T14:06:24;81.72;;;24.23;;
58472;SDS011;44775;51.564;5.460;2022-12-10T14:08:55;79.30;;;23.70;;
58472;SDS011;44775;51.564;5.460;2022-12-10T14:11:23;86.78;;;27.95;;
58472;SDS011;44775;51.564;5.460;2022-12-10T14:13:54;83.80;;;27.80;;
58472;SDS011;44775;51.564;5.460;2022-12-10T14:16:26;82.85;;;25.70;;
58472;SDS011;44775;51.564;5.460;2022-12-10T14:18:56;83.68;;;26.90;;
58472;SDS011;44775;51.564;5.460;2022-12-10T14:21:23;77.55;;;25.35;;
58472;SDS011;44775;51.564;5.460;2022-12-10T14:23:49;84.60;;;26.27;;
58472;SDS011;44775;51.564;5.460;2022-12-10T14:26:22;82.47;;;26.02;;
58472;SDS011;44775;51.564;5.460;2022-12-10T14:29:00;85.78;;;24.48;;
58472;SDS011;44775;51.564;5.460;2022-12-10T14:31:44;73.38;;;20.42;;
58472;SDS011;44775;51.564;5.460;2022-12-10T14:34:21;89.65;;;26.25;;
58472;SDS011;44775;51.564;5.460;2022-12-10T14:36:50;80.85;;;24.48;;
58472;SDS011;44775;51.564;5.460;2022-12-10T14:39:25;86.35;;;26.52;;
58472;SDS011;44775;51.564;5.460;2022-12-10T14:41:54;81.68;;;25.65;;
58472;SDS011;44775;51.564;5.460;2022-12-10T14:44:30;76.15;;;24.10;;
58472;SDS011;44775;51.564;5.460;2022-12-10T14:47:03;78.18;;;25.45;;
58472;SDS011;44775;51.564;5.460;2022-12-10T14:49:44;74.68;;;25.58;;
58472;SDS011;44775;51.564;5.460;2022-12-10T14:52:13;71.57;;;24.15;;
58472;SDS011;44775;51.564;5.460;2022-12-10T14:57:07;86.57;;;25.88;;
58472;SDS011;44775;51.564;5.460;2022-12-10T14:59:39;82.47;;;26.42;;
58472;SDS011;44775;51.564;5.460;2022-12-10T15:02:17;86.65;;;26.33;;
58472;SDS011;44775;51.564;5.460;2022-12-10T15:04:44;91.13;;;26.15;;
58472;SDS011;44775;51.564;5.460;2022-12-10T15:07:20;94.22;;;26.92;;
58472;SDS011;44775;51.564;5.460;2022-12-10T15:09:48;80.43;;;23.63;;
58472;SDS011;44775;51.564;5.460;2022-12-10T15:12:58;87.43;;;27.52;;
58472;SDS011;44775;51.564;5.460;2022-12-10T15:17:41;96.53;;;27.65;;
58472;SDS011;44775;51.564;5.460;2022-12-10T15:20:19;101.20;;;31.38;;
58472;SDS011;44775;51.564;5.460;2022-12-10T15:22:50;88.90;;;26.77;;
58472;SDS011;44775;51.564;5.460;2022-12-10T15:25:21;82.25;;;25.50;;
58472;SDS011;44775;51.564;5.460;2022-12-10T15:27:54;91.55;;;23.67;;
58472;SDS011;44775;51.564;5.460;2022-12-10T15:30:21;95.45;;;27.67;;
58472;SDS011;44775;51.564;5.460;2022-12-10T15:32:49;88.47;;;28.23;;
58472;SDS011;44775;51.564;5.460;2022-12-10T15:35:14;107.35;;;27.42;;
58472;SDS011;44775;51.564;5.460;2022-12-10T15:37:40;112.53;;;30.40;;
58472;SDS011;44775;51.564;5.460;2022-12-10T15:40:19;108.63;;;30.75;;
58472;SDS011;44775;51.564;5.460;2022-12-10T15:42:48;115.22;;;33.83;;
58472;SDS011;44775;51.564;5.460;2022-12-10T15:47:47;101.32;;;29.73;;
58472;SDS011;44775;51.564;5.460;2022-12-10T15:50:14;101.57;;;27.08;;
58472;SDS011;44775;51.564;5.460;2022-12-10T15:52:40;110.35;;;32.60;;
58472;SDS011;44775;51.564;5.460;2022-12-10T15:55:06;106.25;;;32.22;;
58472;SDS011;44775;51.564;5.460;2022-12-10T15:57:34;109.45;;;30.75;;
58472;SDS011;44775;51.564;5.460;2022-12-10T16:00:04;113.78;;;33.72;;
58472;SDS011;44775;51.564;5.460;2022-12-10T16:07:54;121.10;;;31.58;;
58472;SDS011;44775;51.564;5.460;2022-12-10T16:10:22;102.10;;;26.58;;
58472;SDS011;44775;51.564;5.460;2022-12-10T16:12:59;111.67;;;29.43;;
58472;SDS011;44775;51.564;5.460;2022-12-10T16:15:29;96.05;;;26.45;;
58472;SDS011;44775;51.564;5.460;2022-12-10T16:18:00;85.25;;;26.70;;
58472;SDS011;44775;51.564;5.460;2022-12-10T16:20:27;113.93;;;31.63;;
58472;SDS011;44775;51.564;5.460;2022-12-10T16:22:55;114.00;;;31.52;;
58472;SDS011;44775;51.564;5.460;2022-12-10T16:25:22;117.07;;;30.27;;
58472;SDS011;44775;51.564;5.460;2022-12-10T16:27:48;118.78;;;30.67;;